Portada
METAR-TAF:

METAR-TAF

Aeroports :

Carcassona, França

latitud: 43-13N, longitud: 002-19E, altitud: 130 m

Observació

L'informe es va fer fa 43 minuts, a les 22:00 UTC
Vent calma
Temperatura 22°C
Humitat 88%
Pressió 1020 hPa
Visibilitat 10 km o més
Escasses núvols a una alçada de 5600 ft

METAR: LFMK 202200Z AUTO 00000KT 9999 FEW056 22/20 Q1020

Hora: 00:43 (22:43 UTC)

Pronòstic

L'informe es va fer fa 8 hores i 43 minuts, a les 14:00 UTC
Pronòstic vàlid del 20 a les 15 UTC al 21 a les 15 UTC
Vent 12 kt del Est
Visibilitat 10 km o més
sense núvols per sota de 1500 mi sense presència de cumulonimbus.
Evolucionant progressivament
l' 20 a les 19 UTC al 20 a les 22 UTC
Vent 2 kt amb direcció variable

TAF: LFMK 201400Z 2015/2115 09012KT CAVOK BECMG 2019/2022 VRB02KT

Observacions i pronòstics meteorològics de més de 4000 aeroports (METAR i TAF).

Les estacions disponibles són els punts grocs i vermells al mapa.

Posi el ratolí al punt desitjat per veure el nom de l'estació.

Feu clic per veure les observacions i els pronòstics meteorològics.

Per canviar el mapa: feu clic els botons verds amb una creu de color negre per apropar; al botó verd amb un guió per allunyar la imatge; o en les fletxes verdes per a mapes adjacents.


METAR-TAF: